createdAt,value
2018-06-08T00:00:12.802Z,21.06
2018-06-08T00:01:12.985Z,21.00
2018-06-08T00:02:13.164Z,21.03
2018-06-08T00:03:13.345Z,21.14
2018-06-08T00:04:13.538Z,21.11
2018-06-08T00:05:13.707Z,21.20
2018-06-08T00:06:13.896Z,21.15
2018-06-08T00:07:14.072Z,21.15
2018-06-08T00:08:14.241Z,21.18
2018-06-08T00:09:14.423Z,21.17
2018-06-08T00:10:14.601Z,21.15
2018-06-08T00:11:14.785Z,21.09
2018-06-08T00:12:14.961Z,21.15
2018-06-08T00:13:15.146Z,21.12
2018-06-08T00:14:15.330Z,21.11
2018-06-08T00:15:15.514Z,21.21
2018-06-08T00:16:15.695Z,21.21
2018-06-08T00:17:15.871Z,21.21
2018-06-08T00:18:16.044Z,21.20
2018-06-08T00:19:16.221Z,21.14
2018-06-08T00:20:16.396Z,21.05
2018-06-08T00:21:16.582Z,21.03
2018-06-08T00:22:16.761Z,20.93
2018-06-08T00:23:16.938Z,20.97
2018-06-08T00:24:17.120Z,20.99
2018-06-08T00:25:17.290Z,20.99
2018-06-08T00:26:17.468Z,20.97
2018-06-08T00:27:17.649Z,20.99
2018-06-08T00:28:17.832Z,21.03
2018-06-08T00:29:18.011Z,20.99
2018-06-08T00:30:18.192Z,21.02
2018-06-08T00:31:18.373Z,20.93
2018-06-08T00:32:18.555Z,21.03
2018-06-08T00:33:18.739Z,20.93
2018-06-08T00:34:18.912Z,20.93
2018-06-08T00:35:19.090Z,20.95
2018-06-08T00:36:19.269Z,20.93
2018-06-08T00:37:19.463Z,20.88
2018-06-08T00:38:19.643Z,20.87
2018-06-08T00:39:19.883Z,20.82
2018-06-08T00:40:19.999Z,20.87
2018-06-08T00:41:20.176Z,20.87
2018-06-08T00:42:20.359Z,20.93
2018-06-08T00:43:20.531Z,20.85
2018-06-08T00:44:20.708Z,20.88
2018-06-08T00:45:22.788Z,20.88
2018-06-08T00:46:23.287Z,20.90
2018-06-08T00:47:21.262Z,20.90
2018-06-08T00:48:21.339Z,20.93
2018-06-08T00:49:21.523Z,20.96
2018-06-08T00:50:21.700Z,20.92
2018-06-08T00:51:21.884Z,20.99
2018-06-08T00:52:22.055Z,20.90
2018-06-08T00:53:22.236Z,20.88
2018-06-08T00:54:22.413Z,20.88
2018-06-08T00:55:22.599Z,20.92
2018-06-08T00:56:22.785Z,20.93
2018-06-08T00:57:22.965Z,20.92
2018-06-08T00:58:23.150Z,20.93
2018-06-08T00:59:23.321Z,20.90
2018-06-08T01:00:23.502Z,20.93
2018-06-08T01:01:23.683Z,20.88
2018-06-08T01:02:23.868Z,20.90
2018-06-08T01:03:24.048Z,20.85
2018-06-08T01:04:24.229Z,20.88
2018-06-08T01:05:24.404Z,20.82
2018-06-08T01:06:24.586Z,20.88
2018-06-08T01:07:24.768Z,20.85
2018-06-08T01:08:24.949Z,20.95
2018-06-08T01:09:25.129Z,20.87
2018-06-08T01:10:25.316Z,20.92
2018-06-08T01:11:25.497Z,20.90
2018-06-08T01:12:25.685Z,21.02
2018-06-08T01:13:25.859Z,20.95
2018-06-08T01:14:26.047Z,20.92
2018-06-08T01:15:26.229Z,20.90
2018-06-08T01:16:26.414Z,20.85
2018-06-08T01:17:26.598Z,20.77
2018-06-08T01:18:26.785Z,20.78
2018-06-08T01:19:26.962Z,20.77
2018-06-08T01:20:27.145Z,20.65
2018-06-08T01:21:27.326Z,20.74
2018-06-08T01:22:27.511Z,20.70
2018-06-08T01:23:27.696Z,20.67
2018-06-08T01:24:27.884Z,20.72
2018-06-08T01:25:28.063Z,20.62
2018-06-08T01:26:28.242Z,20.62
2018-06-08T01:27:28.423Z,20.56
2018-06-08T01:28:28.608Z,20.52
2018-06-08T01:29:28.795Z,20.48
2018-06-08T01:30:28.970Z,20.44
2018-06-08T01:31:29.147Z,20.55
2018-06-08T01:32:29.329Z,20.59
2018-06-08T01:33:29.502Z,20.52
2018-06-08T01:34:29.685Z,20.47
2018-06-08T01:35:29.874Z,20.43
2018-06-08T01:36:30.100Z,20.52
2018-06-08T01:37:30.155Z,20.52
2018-06-08T01:38:30.358Z,20.44
2018-06-08T01:39:30.539Z,20.47
2018-06-08T01:40:30.752Z,20.32
2018-06-08T01:41:30.948Z,20.37
2018-06-08T01:42:31.198Z,20.40
2018-06-08T01:43:31.264Z,20.41
2018-06-08T01:44:31.445Z,20.32
2018-06-08T01:45:31.626Z,20.36
2018-06-08T01:46:31.805Z,20.29
2018-06-08T01:47:31.988Z,20.34
2018-06-08T01:48:32.168Z,20.21
2018-06-08T01:49:32.345Z,20.22
2018-06-08T01:50:32.520Z,20.36
2018-06-08T01:51:32.697Z,20.26
2018-06-08T01:52:32.885Z,20.29
2018-06-08T01:53:33.066Z,20.29
2018-06-08T01:54:33.256Z,20.25
2018-06-08T01:55:33.436Z,20.24
2018-06-08T01:56:33.609Z,20.32
2018-06-08T01:57:33.786Z,20.26
2018-06-08T01:58:33.966Z,20.22
2018-06-08T01:59:34.137Z,20.19
2018-06-08T02:00:34.324Z,20.22
2018-06-08T02:01:34.501Z,20.22
2018-06-08T02:02:34.678Z,20.02
2018-06-08T02:03:34.860Z,20.09
2018-06-08T02:04:35.031Z,20.14
2018-06-08T02:05:35.212Z,20.09
2018-06-08T02:06:35.403Z,20.09
2018-06-08T02:07:35.580Z,20.09
2018-06-08T02:08:35.761Z,20.07
2018-06-08T02:09:35.936Z,20.06
2018-06-08T02:10:36.120Z,20.09
2018-06-08T02:11:36.291Z,20.02
2018-06-08T02:12:36.470Z,19.92
2018-06-08T02:13:36.649Z,19.89
2018-06-08T02:14:36.826Z,19.99
2018-06-08T02:15:37.000Z,19.92
2018-06-08T02:16:37.179Z,19.88
2018-06-08T02:17:37.354Z,19.91
2018-06-08T02:18:37.526Z,19.89
2018-06-08T02:19:37.713Z,19.94
2018-06-08T02:20:37.900Z,19.95
2018-06-08T02:21:38.081Z,19.79
2018-06-08T02:22:38.251Z,19.84
2018-06-08T02:23:38.426Z,19.85
2018-06-08T02:24:38.605Z,19.84
2018-06-08T02:25:38.774Z,19.91
2018-06-08T02:26:38.951Z,19.85
2018-06-08T02:27:39.126Z,19.84
2018-06-08T02:28:39.306Z,19.81
2018-06-08T02:29:39.479Z,19.84
2018-06-08T02:30:39.660Z,19.81
2018-06-08T02:31:40.466Z,19.82
2018-06-08T02:32:40.011Z,19.85
2018-06-08T02:33:40.190Z,19.88
2018-06-08T02:34:40.377Z,19.85
2018-06-08T02:35:40.554Z,19.76
2018-06-08T02:36:40.731Z,19.77
2018-06-08T02:37:40.909Z,19.94
2018-06-08T02:38:41.089Z,19.84
2018-06-08T02:39:41.264Z,19.84
2018-06-08T02:40:41.446Z,19.85
2018-06-08T02:41:41.884Z,19.86
2018-06-08T02:42:41.793Z,19.86
2018-06-08T02:43:42.106Z,19.85
2018-06-08T02:44:42.159Z,19.82
2018-06-08T02:45:42.342Z,19.82
2018-06-08T02:46:42.535Z,19.77
2018-06-08T02:47:42.746Z,19.81
2018-06-08T02:48:42.899Z,19.79
2018-06-08T02:49:43.076Z,19.86
2018-06-08T02:50:43.252Z,19.84
2018-06-08T02:51:43.438Z,19.84
2018-06-08T02:52:43.626Z,19.91
2018-06-08T02:53:43.803Z,19.92
2018-06-08T02:54:43.977Z,19.92
2018-06-08T02:55:44.148Z,20.00
2018-06-08T02:56:44.321Z,20.04
2018-06-08T02:57:44.498Z,20.00
2018-06-08T02:58:44.673Z,20.03
2018-06-08T02:59:44.861Z,20.03
2018-06-08T03:00:45.049Z,20.00
2018-06-08T03:01:45.211Z,19.96
2018-06-08T03:02:45.388Z,20.02
2018-06-08T03:03:45.560Z,19.96
2018-06-08T03:04:45.752Z,20.02
2018-06-08T03:05:45.920Z,20.03
2018-06-08T03:06:46.105Z,20.09
2018-06-08T03:07:46.279Z,20.03
2018-06-08T03:08:46.457Z,20.03
2018-06-08T03:09:46.637Z,19.99
2018-06-08T03:10:46.810Z,20.04
2018-06-08T03:11:46.989Z,19.92
2018-06-08T03:12:47.166Z,20.11
2018-06-08T03:13:47.347Z,20.10
2018-06-08T03:14:47.528Z,20.02
2018-06-08T03:15:47.708Z,20.04
2018-06-08T03:16:47.887Z,20.09
2018-06-08T03:17:48.068Z,20.07
2018-06-08T03:18:48.241Z,20.10
2018-06-08T03:19:48.413Z,20.10
2018-06-08T03:20:48.590Z,20.13
2018-06-08T03:21:48.768Z,20.19
2018-06-08T03:22:48.940Z,20.16
2018-06-08T03:23:49.117Z,20.24
2018-06-08T03:24:49.297Z,20.16
2018-06-08T03:25:49.470Z,20.14
2018-06-08T03:26:49.644Z,20.24
2018-06-08T03:27:49.822Z,20.21
2018-06-08T03:28:50.000Z,20.36
2018-06-08T03:29:50.179Z,20.32
2018-06-08T03:30:50.361Z,20.28
2018-06-08T03:31:50.537Z,20.40
2018-06-08T03:32:50.717Z,20.22
2018-06-08T03:33:50.896Z,20.29
2018-06-08T03:34:51.074Z,20.19
2018-06-08T03:35:51.260Z,20.28
2018-06-08T03:36:51.440Z,20.25
2018-06-08T03:37:51.614Z,20.29
2018-06-08T03:38:51.793Z,20.28
2018-06-08T03:39:51.968Z,20.31
2018-06-08T03:40:52.151Z,20.36
2018-06-08T03:41:52.328Z,20.28
2018-06-08T03:42:52.500Z,20.34
2018-06-08T03:43:52.681Z,20.26
2018-06-08T03:44:52.864Z,20.39
2018-06-08T03:45:53.030Z,20.47
2018-06-08T03:46:53.221Z,20.41
2018-06-08T03:47:54.273Z,20.44
2018-06-08T03:48:53.658Z,20.43
2018-06-08T03:49:55.307Z,20.47
2018-06-08T03:50:54.074Z,20.44
2018-06-08T03:51:54.114Z,20.44
2018-06-08T03:52:54.250Z,20.48
2018-06-08T03:53:54.305Z,20.47
2018-06-08T03:54:54.475Z,20.44
2018-06-08T03:55:54.687Z,20.44
2018-06-08T03:56:54.832Z,20.47
2018-06-08T03:57:55.013Z,20.56
2018-06-08T03:58:55.190Z,20.47
2018-06-08T03:59:57.021Z,20.48
2018-06-08T04:00:56.991Z,20.48
2018-06-08T04:01:55.787Z,20.47
2018-06-08T04:02:56.060Z,20.52
2018-06-08T04:03:56.120Z,20.55
2018-06-08T04:04:56.725Z,20.63
2018-06-08T04:05:56.413Z,20.62
2018-06-08T04:06:56.598Z,20.55
2018-06-08T04:07:56.788Z,20.51
2018-06-08T04:08:56.966Z,20.59
2018-06-08T04:09:57.141Z,20.58
2018-06-08T04:10:57.318Z,20.56
2018-06-08T04:11:57.500Z,20.66
2018-06-08T04:12:57.678Z,20.50
2018-06-08T04:13:57.861Z,20.62
2018-06-08T04:14:58.036Z,20.65
2018-06-08T04:15:58.224Z,20.60
2018-06-08T04:16:58.395Z,20.48
2018-06-08T04:17:58.578Z,20.41
2018-06-08T04:18:58.754Z,20.59
2018-06-08T04:19:58.932Z,20.50
2018-06-08T04:20:59.110Z,20.47
2018-06-08T04:21:59.285Z,20.48
2018-06-08T04:22:59.463Z,20.50
2018-06-08T04:23:59.637Z,20.48
2018-06-08T04:24:59.822Z,20.50
2018-06-08T04:26:00.005Z,20.47
2018-06-08T04:27:00.177Z,20.47
2018-06-08T04:28:00.354Z,20.43
2018-06-08T04:29:00.557Z,20.43
2018-06-08T04:30:00.735Z,20.39
2018-06-08T04:31:00.912Z,20.47
2018-06-08T04:32:01.091Z,20.43
2018-06-08T04:33:01.288Z,20.44
2018-06-08T04:34:01.445Z,20.39
2018-06-08T04:35:01.623Z,20.52
2018-06-08T04:36:03.681Z,20.48
2018-06-08T04:37:06.776Z,20.48
2018-06-08T04:38:03.525Z,20.41
2018-06-08T04:39:05.722Z,20.47
2018-06-08T04:40:05.221Z,20.41
2018-06-08T04:41:04.666Z,20.43
2018-06-08T04:42:04.375Z,20.44
2018-06-08T04:43:04.268Z,20.44
2018-06-08T04:44:04.751Z,20.39
2018-06-08T04:45:04.921Z,20.51
2018-06-08T04:46:05.622Z,20.32
2018-06-08T04:47:04.805Z,20.34
2018-06-08T04:48:07.280Z,20.29
2018-06-08T04:49:07.240Z,20.31
2018-06-08T04:50:07.163Z,20.39
2018-06-08T04:51:06.509Z,20.26
2018-06-08T04:52:08.086Z,20.31
2018-06-08T04:53:06.110Z,20.36
2018-06-08T04:54:06.992Z,20.26
2018-06-08T04:55:07.051Z,20.31
2018-06-08T04:56:07.410Z,20.24
2018-06-08T04:57:08.182Z,20.31
2018-06-08T04:58:08.193Z,20.28
2018-06-08T04:59:07.755Z,20.34
2018-06-08T05:00:07.323Z,20.32
2018-06-08T05:01:07.367Z,20.37
2018-06-08T05:02:07.540Z,20.31
2018-06-08T05:03:06.939Z,20.36
2018-06-08T05:04:07.559Z,20.32
2018-06-08T05:05:07.094Z,20.40
2018-06-08T05:06:07.709Z,20.29
2018-06-08T05:07:07.305Z,20.34
2018-06-08T05:08:08.331Z,20.44
2018-06-08T05:09:09.447Z,20.40
2018-06-08T05:10:09.709Z,20.43
2018-06-08T05:11:08.357Z,20.47
2018-06-08T05:12:08.614Z,20.48
2018-06-08T05:13:09.786Z,20.44
2018-06-08T05:14:08.889Z,20.51
2018-06-08T05:15:08.758Z,20.55
2018-06-08T05:16:09.822Z,20.56
2018-06-08T05:17:08.968Z,20.58
2018-06-08T05:18:09.611Z,20.63
2018-06-08T05:19:09.469Z,20.65
2018-06-08T05:20:09.573Z,20.58
2018-06-08T05:21:09.458Z,20.62
2018-06-08T05:22:09.676Z,20.63
2018-06-08T05:23:09.181Z,20.55
2018-06-08T05:24:09.555Z,20.67
2018-06-08T05:25:10.966Z,20.69
2018-06-08T05:26:09.752Z,20.69
2018-06-08T05:27:09.883Z,20.78
2018-06-08T05:28:10.062Z,20.78
2018-06-08T05:29:10.293Z,20.85
2018-06-08T05:30:10.482Z,20.88
2018-06-08T05:31:10.665Z,20.88
2018-06-08T05:32:10.850Z,20.92
2018-06-08T05:33:11.025Z,20.78
2018-06-08T05:34:11.208Z,20.56
2018-06-08T05:35:11.384Z,20.59
2018-06-08T05:36:11.623Z,20.65
2018-06-08T05:37:11.759Z,20.52
2018-06-08T05:38:11.935Z,20.47
2018-06-08T05:39:12.113Z,20.52
2018-06-08T05:40:12.292Z,20.65
2018-06-08T05:41:12.478Z,20.69
2018-06-08T05:42:12.666Z,20.69
2018-06-08T05:43:12.837Z,20.82
2018-06-08T05:44:13.015Z,20.74
2018-06-08T05:45:13.186Z,20.85
2018-06-08T05:46:13.364Z,20.84
2018-06-08T05:47:13.536Z,20.93
2018-06-08T05:48:13.743Z,20.96
2018-06-08T05:49:13.896Z,20.97
2018-06-08T05:50:14.299Z,20.88
2018-06-08T05:51:14.230Z,20.96
2018-06-08T05:52:14.412Z,21.02
2018-06-08T05:53:14.792Z,21.00
2018-06-08T05:54:15.115Z,21.03
2018-06-08T05:55:14.860Z,21.02
2018-06-08T05:56:15.051Z,21.14
2018-06-08T05:57:15.337Z,21.20
2018-06-08T05:58:15.399Z,21.21
2018-06-08T05:59:15.583Z,21.14
2018-06-08T06:00:15.760Z,21.22
2018-06-08T06:01:16.822Z,21.27
2018-06-08T06:02:16.124Z,21.29
2018-06-08T06:03:16.294Z,21.30
2018-06-08T06:04:16.476Z,21.24
2018-06-08T06:05:16.653Z,21.42
2018-06-08T06:06:16.829Z,21.33
2018-06-08T06:07:17.002Z,21.51
2018-06-08T06:08:17.184Z,21.52
2018-06-08T06:09:17.356Z,21.48
2018-06-08T06:10:17.536Z,21.50
2018-06-08T06:11:17.724Z,21.48
2018-06-08T06:12:17.895Z,21.52
2018-06-08T06:13:18.082Z,21.46
2018-06-08T06:14:18.254Z,21.58
2018-06-08T06:15:18.440Z,21.58
2018-06-08T06:16:18.614Z,21.66
2018-06-08T06:17:18.798Z,21.70
2018-06-08T06:18:18.976Z,21.73
2018-06-08T06:19:19.154Z,21.73
2018-06-08T06:20:19.359Z,21.80
2018-06-08T06:21:19.543Z,21.89
2018-06-08T06:22:19.725Z,21.98
2018-06-08T06:23:19.910Z,22.00
2018-06-08T06:24:20.088Z,22.00
2018-06-08T06:25:20.273Z,22.07
2018-06-08T06:26:20.454Z,22.02
2018-06-08T06:27:20.650Z,22.07
2018-06-08T06:28:20.868Z,22.20
2018-06-08T06:29:21.044Z,22.08
2018-06-08T06:30:21.218Z,22.33
2018-06-08T06:31:21.392Z,22.35
2018-06-08T06:32:21.637Z,22.29
2018-06-08T06:33:21.770Z,22.35
2018-06-08T06:34:21.937Z,22.38
2018-06-08T06:35:22.128Z,22.48
2018-06-08T06:36:22.305Z,22.47
2018-06-08T06:37:22.479Z,22.59
2018-06-08T06:38:22.660Z,22.57
2018-06-08T06:39:22.839Z,22.68
2018-06-08T06:40:23.033Z,22.75
2018-06-08T06:41:23.205Z,22.85
2018-06-08T06:42:23.382Z,22.75
2018-06-08T06:43:23.561Z,22.88
2018-06-08T06:44:23.753Z,22.88
2018-06-08T06:45:23.927Z,23.00
2018-06-08T06:46:24.103Z,23.08
2018-06-08T06:47:24.282Z,23.23
2018-06-08T06:48:24.466Z,23.25
2018-06-08T06:49:24.645Z,23.31
2018-06-08T06:50:24.828Z,23.36
2018-06-08T06:51:25.015Z,23.58
2018-06-08T06:52:25.196Z,23.58
2018-06-08T06:53:25.382Z,23.73
2018-06-08T06:54:25.551Z,23.84
2018-06-08T06:55:25.742Z,23.81
2018-06-08T06:56:25.917Z,23.80
2018-06-08T06:57:26.104Z,23.84
2018-06-08T06:58:26.277Z,23.93
2018-06-08T06:59:26.463Z,24.02
2018-06-08T07:00:26.648Z,24.08
2018-06-08T07:01:26.852Z,24.13
2018-06-08T07:02:27.008Z,24.06
2018-06-08T07:03:27.191Z,23.93
2018-06-08T07:04:27.418Z,24.02
2018-06-08T07:05:27.570Z,23.95
2018-06-08T07:06:27.764Z,24.10
2018-06-08T07:07:27.939Z,23.95
2018-06-08T07:08:28.202Z,24.11
2018-06-08T07:09:28.262Z,23.98
2018-06-08T07:10:28.441Z,24.02
2018-06-08T07:11:28.622Z,24.05
2018-06-08T07:12:28.812Z,24.13
2018-06-08T07:13:28.978Z,24.28
2018-06-08T07:14:29.162Z,24.35
2018-06-08T07:15:29.339Z,24.28
2018-06-08T07:16:29.516Z,24.33
2018-06-08T07:17:29.705Z,24.40
2018-06-08T07:18:29.894Z,24.42
2018-06-08T07:19:30.100Z,24.38
2018-06-08T07:20:30.520Z,24.30
2018-06-08T07:21:30.798Z,24.38
2018-06-08T07:22:30.962Z,24.38
2018-06-08T07:23:30.806Z,24.43
2018-06-08T07:24:31.213Z,24.48
2018-06-08T07:25:31.253Z,24.57
2018-06-08T07:26:31.512Z,24.65
2018-06-08T07:27:31.782Z,24.76
2018-06-08T07:28:31.638Z,24.78
2018-06-08T07:29:32.154Z,24.70
2018-06-08T07:30:32.288Z,24.89
2018-06-08T07:31:32.254Z,24.78
2018-06-08T07:32:32.430Z,24.92
2018-06-08T07:33:32.673Z,25.01
2018-06-08T07:34:32.883Z,24.93
2018-06-08T07:35:33.088Z,25.11
2018-06-08T07:36:33.355Z,25.21
2018-06-08T07:37:33.519Z,25.10
2018-06-08T07:38:33.634Z,25.16
2018-06-08T07:39:34.637Z,25.29
2018-06-08T07:40:34.029Z,25.23
2018-06-08T07:41:33.950Z,25.21
2018-06-08T07:42:34.466Z,25.26
2018-06-08T07:43:34.580Z,25.35
2018-06-08T07:44:34.827Z,25.55
2018-06-08T07:45:35.053Z,25.75
2018-06-08T07:46:34.861Z,25.77
2018-06-08T07:47:35.370Z,26.02
2018-06-08T07:48:35.372Z,26.25
2018-06-08T07:49:35.599Z,26.36
2018-06-08T07:50:35.642Z,26.52
2018-06-08T07:51:35.775Z,26.77
2018-06-08T07:52:38.134Z,26.66
2018-06-08T07:53:35.939Z,26.52
2018-06-08T07:54:38.324Z,26.66
2018-06-08T07:55:36.452Z,26.90
2018-06-08T07:56:36.836Z,27.05
2018-06-08T07:57:37.236Z,27.11
2018-06-08T07:58:37.245Z,27.29
2018-06-08T07:59:37.246Z,27.30
2018-06-08T08:00:37.258Z,27.33
2018-06-08T08:01:37.533Z,27.44
2018-06-08T08:02:37.710Z,27.29
2018-06-08T08:03:37.955Z,27.26
2018-06-08T08:04:38.086Z,27.26
2018-06-08T08:05:38.173Z,27.26
2018-06-08T08:06:38.481Z,27.21
2018-06-08T08:07:38.459Z,27.17
2018-06-08T08:08:38.755Z,27.07
2018-06-08T08:09:38.772Z,27.15
2018-06-08T08:10:38.882Z,27.08
2018-06-08T08:11:39.037Z,27.08
2018-06-08T08:12:39.126Z,27.05
2018-06-08T08:13:38.963Z,26.97
2018-06-08T08:14:39.495Z,26.97
2018-06-08T08:15:39.593Z,26.80
2018-06-08T08:16:39.626Z,26.83
2018-06-08T08:17:39.606Z,26.85
2018-06-08T08:18:40.089Z,26.95
2018-06-08T08:19:40.088Z,26.92
2018-06-08T08:20:40.407Z,27.11
2018-06-08T08:21:40.480Z,27.27
2018-06-08T08:22:40.472Z,27.30
2018-06-08T08:23:40.814Z,27.48
2018-06-08T08:24:41.066Z,27.45
2018-06-08T08:25:41.231Z,27.51
2018-06-08T08:26:41.804Z,27.63
2018-06-08T08:27:41.723Z,27.75
2018-06-08T08:28:42.020Z,27.89
2018-06-08T08:29:42.217Z,27.98
2018-06-08T08:30:42.005Z,28.32
2018-06-08T08:31:42.414Z,28.51
2018-06-08T08:32:42.679Z,28.63
2018-06-08T08:33:42.981Z,29.07
2018-06-08T08:34:42.763Z,29.68
2018-06-08T08:35:42.951Z,30.21
2018-06-08T08:36:43.147Z,31.17
2018-06-08T08:37:43.335Z,31.55
2018-06-08T08:38:43.524Z,31.46
2018-06-08T08:39:43.761Z,31.39
2018-06-08T08:40:43.903Z,31.14
2018-06-08T08:41:44.118Z,31.17
2018-06-08T08:42:44.280Z,31.20
2018-06-08T08:43:44.463Z,31.05
2018-06-08T08:44:44.653Z,31.12
2018-06-08T08:45:44.863Z,31.02
2018-06-08T08:46:45.021Z,30.96
2018-06-08T08:47:45.207Z,31.24
2018-06-08T08:48:45.400Z,31.33
2018-06-08T08:49:45.586Z,31.71
2018-06-08T08:50:45.769Z,31.99
2018-06-08T08:51:46.044Z,32.77
2018-06-08T08:52:46.659Z,33.43
2018-06-08T08:53:46.301Z,34.20
2018-06-08T08:54:46.485Z,34.78
2018-06-08T08:55:46.685Z,35.22
2018-06-08T08:56:46.929Z,35.58
2018-06-08T08:57:47.058Z,35.98
2018-06-08T08:58:47.590Z,36.08
2018-06-08T08:59:47.437Z,36.46
2018-06-08T09:00:47.622Z,36.76
2018-06-08T09:01:47.855Z,36.81
2018-06-08T09:02:47.933Z,36.65
2018-06-08T09:03:48.148Z,36.73
2018-06-08T09:04:48.341Z,37.02
2018-06-08T09:05:48.532Z,37.17
2018-06-08T09:06:48.720Z,37.51
2018-06-08T09:07:48.910Z,37.74
2018-06-08T09:08:49.101Z,37.83
2018-06-08T09:09:49.312Z,38.12
2018-06-08T09:10:49.592Z,38.57
2018-06-08T09:11:49.690Z,38.84
2018-06-08T09:12:49.845Z,38.97
2018-06-08T09:13:50.028Z,39.00
2018-06-08T09:14:50.219Z,38.26
2018-06-08T09:15:50.408Z,37.71
2018-06-08T09:16:50.601Z,37.89
2018-06-08T09:17:50.809Z,38.11
2018-06-08T09:18:51.001Z,38.50
2018-06-08T09:19:51.207Z,38.97
2018-06-08T09:20:51.390Z,39.48
2018-06-08T09:21:51.624Z,39.11
2018-06-08T09:22:51.784Z,39.00
2018-06-08T09:23:52.019Z,38.57
2018-06-08T09:24:52.212Z,38.19
2018-06-08T09:25:52.411Z,38.43
2018-06-08T09:26:52.629Z,38.80
2018-06-08T09:27:52.908Z,38.91
2018-06-08T09:28:52.952Z,38.74
2018-06-08T09:29:53.177Z,39.11
2018-06-08T09:30:53.366Z,39.86
2018-06-08T09:31:53.583Z,39.33
2018-06-08T09:32:53.760Z,39.29
2018-06-08T09:33:53.947Z,39.70
2018-06-08T09:34:54.136Z,40.20
2018-06-08T09:35:54.355Z,40.46
2018-06-08T09:36:54.579Z,40.21
2018-06-08T09:37:54.778Z,40.43
2018-06-08T09:38:54.968Z,40.65
2018-06-08T09:39:55.185Z,40.27
2018-06-08T09:40:55.346Z,40.47
2018-06-08T09:41:55.547Z,40.70
2018-06-08T09:42:55.729Z,40.49
2018-06-08T09:43:55.919Z,40.08
2018-06-08T09:44:56.104Z,39.63
2018-06-08T09:45:56.308Z,39.24
2018-06-08T09:46:56.490Z,38.68
2018-06-08T09:47:56.695Z,38.23
2018-06-08T09:48:56.898Z,37.72
2018-06-08T09:49:57.101Z,37.35
2018-06-08T09:50:57.297Z,37.14
2018-06-08T09:51:57.516Z,37.30
2018-06-08T09:52:57.783Z,37.72
2018-06-08T09:53:57.903Z,38.06
2018-06-08T09:54:58.126Z,38.31
2018-06-08T09:55:58.325Z,38.26
2018-06-08T09:56:58.510Z,38.26
2018-06-08T09:57:58.701Z,38.34
2018-06-08T09:58:58.884Z,38.40
2018-06-08T09:59:59.077Z,38.14
2018-06-08T10:00:59.332Z,38.05
2018-06-08T10:01:59.553Z,37.75
2018-06-08T10:02:59.736Z,37.37
2018-06-08T10:04:02.756Z,36.80
2018-06-08T10:05:00.063Z,36.61
2018-06-08T10:06:00.244Z,36.61
2018-06-08T10:07:00.429Z,35.60
2018-06-08T10:08:01.947Z,35.42
2018-06-08T10:09:00.756Z,35.56
2018-06-08T10:10:00.943Z,35.49
2018-06-08T10:11:01.816Z,35.56
2018-06-08T10:12:01.448Z,35.55
2018-06-08T10:13:04.912Z,35.52
2018-06-08T10:14:02.159Z,35.60
2018-06-08T10:15:01.966Z,35.76
2018-06-08T10:16:02.252Z,35.61
2018-06-08T10:17:02.852Z,35.66
2018-06-08T10:18:02.344Z,35.68
2018-06-08T10:19:02.530Z,35.55
2018-06-08T10:20:02.723Z,35.60
2018-06-08T10:21:02.918Z,35.05
2018-06-08T10:22:03.177Z,34.74
2018-06-08T10:23:03.300Z,34.74
2018-06-08T10:24:03.487Z,34.81
2018-06-08T10:25:03.675Z,34.97
2018-06-08T10:26:04.010Z,35.05
2018-06-08T10:27:04.068Z,35.30
2018-06-08T10:28:04.255Z,35.33
2018-06-08T10:29:04.448Z,35.02
2018-06-08T10:30:04.633Z,34.73
2018-06-08T10:31:04.823Z,34.60
2018-06-08T10:32:05.009Z,34.48
2018-06-08T10:33:05.203Z,34.17
2018-06-08T10:34:05.423Z,34.05
2018-06-08T10:35:05.587Z,34.14
2018-06-08T10:36:06.047Z,34.20
2018-06-08T10:37:06.197Z,34.20
2018-06-08T10:38:06.454Z,34.23
2018-06-08T10:39:06.395Z,34.17
2018-06-08T10:40:06.578Z,34.03
2018-06-08T10:41:06.775Z,33.61
2018-06-08T10:42:06.945Z,33.43
2018-06-08T10:43:07.133Z,33.49
2018-06-08T10:44:07.319Z,33.20
2018-06-08T10:45:07.517Z,33.09
2018-06-08T10:46:08.226Z,33.02
2018-06-08T10:47:07.832Z,33.22
2018-06-08T10:48:08.024Z,33.30
2018-06-08T10:49:08.211Z,33.53
2018-06-08T10:50:08.409Z,33.79
2018-06-08T10:51:08.592Z,33.77
2018-06-08T10:52:08.769Z,33.83
2018-06-08T10:53:08.972Z,33.71
2018-06-08T10:54:09.166Z,33.49
2018-06-08T10:55:09.350Z,33.53
2018-06-08T10:56:09.549Z,33.34
2018-06-08T10:57:09.732Z,33.23
2018-06-08T10:58:09.916Z,33.23
2018-06-08T10:59:10.100Z,33.20
2018-06-08T11:00:10.290Z,33.07
2018-06-08T11:01:10.476Z,33.17
2018-06-08T11:02:10.673Z,33.20
2018-06-08T11:03:10.883Z,32.96
2018-06-08T11:04:12.966Z,32.85
2018-06-08T11:05:11.265Z,32.86
2018-06-08T11:06:11.442Z,33.07
2018-06-08T11:07:11.666Z,33.30
2018-06-08T11:08:11.854Z,33.15
2018-06-08T11:09:12.035Z,32.95
2018-06-08T11:10:12.222Z,32.89
2018-06-08T11:11:12.410Z,32.97
2018-06-08T11:12:12.600Z,32.87
2018-06-08T11:13:12.795Z,32.95
2018-06-08T11:14:12.986Z,32.65
2018-06-08T11:15:13.199Z,32.64
2018-06-08T11:16:13.382Z,32.43
2018-06-08T11:17:13.627Z,32.68
2018-06-08T11:18:13.790Z,32.75
2018-06-08T11:19:14.045Z,32.85
2018-06-08T11:20:15.132Z,33.05
2018-06-08T11:21:15.774Z,33.15
2018-06-08T11:22:14.561Z,33.23
2018-06-08T11:23:14.748Z,33.40
2018-06-08T11:24:14.958Z,33.62
2018-06-08T11:25:15.144Z,33.77
2018-06-08T11:26:15.340Z,33.76
2018-06-08T11:27:15.589Z,33.71
2018-06-08T11:28:15.651Z,33.92
2018-06-08T11:29:15.847Z,33.96
2018-06-08T11:30:16.032Z,34.03
2018-06-08T11:31:16.219Z,34.24
2018-06-08T11:32:16.400Z,34.02
2018-06-08T11:33:16.614Z,33.80
2018-06-08T11:34:16.851Z,33.62
2018-06-08T11:35:17.030Z,33.36
2018-06-08T11:36:17.232Z,33.17
2018-06-08T11:37:17.415Z,33.17
2018-06-08T11:38:17.608Z,33.07
2018-06-08T11:39:17.852Z,32.95
2018-06-08T11:40:17.980Z,33.09
2018-06-08T11:41:18.169Z,33.22
2018-06-08T11:42:18.360Z,33.20
2018-06-08T11:43:18.551Z,33.23
2018-06-08T11:44:18.738Z,33.36
2018-06-08T11:45:18.936Z,33.22
2018-06-08T11:46:19.313Z,33.32
2018-06-08T11:47:19.519Z,33.40
2018-06-08T11:48:19.502Z,33.30
2018-06-08T11:49:19.658Z,33.32
2018-06-08T11:50:19.894Z,33.43
2018-06-08T11:51:20.058Z,33.61
2018-06-08T11:52:20.233Z,33.76
2018-06-08T11:53:20.500Z,33.83
2018-06-08T11:54:20.622Z,33.92
2018-06-08T11:55:20.809Z,33.77
2018-06-08T11:56:21.009Z,33.76
2018-06-08T11:57:21.205Z,33.77
2018-06-08T11:58:21.511Z,33.59
2018-06-08T11:59:21.587Z,33.46
2018-06-08T12:00:22.369Z,33.27
2018-06-08T12:01:22.058Z,33.20
2018-06-08T12:02:22.205Z,33.20
2018-06-08T12:03:22.272Z,33.30
2018-06-08T12:04:22.480Z,33.45
2018-06-08T12:05:23.039Z,33.04
2018-06-08T12:06:22.928Z,32.95
2018-06-08T12:07:23.112Z,33.04
2018-06-08T12:08:23.308Z,32.92
2018-06-08T12:09:23.520Z,32.96
2018-06-08T12:10:23.706Z,32.74
2018-06-08T12:11:23.897Z,32.73
2018-06-08T12:12:24.154Z,32.77
2018-06-08T12:13:24.317Z,32.73
2018-06-08T12:14:24.508Z,32.71
2018-06-08T12:15:24.685Z,32.68
2018-06-08T12:16:24.914Z,32.40
2018-06-08T12:17:25.291Z,32.60
2018-06-08T12:18:25.285Z,32.75
2018-06-08T12:19:25.480Z,32.86
2018-06-08T12:20:25.814Z,32.95
2018-06-08T12:21:26.179Z,33.09
2018-06-08T12:22:26.304Z,33.08
2018-06-08T12:23:26.393Z,33.17
2018-06-08T12:24:26.567Z,33.24
2018-06-08T12:25:26.526Z,33.27
2018-06-08T12:26:26.968Z,33.23
2018-06-08T12:27:27.352Z,33.15
2018-06-08T12:28:27.249Z,32.95
2018-06-08T12:29:27.402Z,33.05
2018-06-08T12:30:27.661Z,33.17
2018-06-08T12:31:27.584Z,33.28
2018-06-08T12:32:27.780Z,33.39
2018-06-08T12:33:27.967Z,33.39
2018-06-08T12:34:28.151Z,33.40
2018-06-08T12:35:28.336Z,33.32
2018-06-08T12:36:28.552Z,32.89
2018-06-08T12:37:28.708Z,32.86
2018-06-08T12:38:28.904Z,32.93
2018-06-08T12:39:29.095Z,33.08
2018-06-08T12:40:29.287Z,33.27
2018-06-08T12:41:29.499Z,33.28
2018-06-08T12:42:29.684Z,33.31
2018-06-08T12:43:29.914Z,33.45
2018-06-08T12:44:30.047Z,33.43
2018-06-08T12:45:30.242Z,33.22
2018-06-08T12:46:30.456Z,33.17
2018-06-08T12:47:30.635Z,33.19
2018-06-08T12:48:30.822Z,33.15
2018-06-08T12:49:31.007Z,33.22
2018-06-08T12:50:31.202Z,33.27
2018-06-08T12:51:31.379Z,33.30
2018-06-08T12:52:31.565Z,33.27
2018-06-08T12:53:31.764Z,33.31
2018-06-08T12:54:31.953Z,33.34